createdAt,value
2022-11-17T00:01:09.620Z,3.65
2022-11-17T00:03:36.994Z,4.30
2022-11-17T00:06:06.917Z,4.13
2022-11-17T00:08:33.606Z,4.05
2022-11-17T00:11:01.215Z,6.03
2022-11-17T00:13:47.037Z,4.13
2022-11-17T00:16:14.313Z,3.70
2022-11-17T00:18:59.164Z,5.03
2022-11-17T00:21:27.097Z,5.22
2022-11-17T00:26:20.908Z,5.47
2022-11-17T00:28:47.604Z,5.85
2022-11-17T00:31:33.033Z,5.47
2022-11-17T00:34:05.790Z,3.70
2022-11-17T00:36:39.451Z,4.72
2022-11-17T00:39:06.701Z,7.13
2022-11-17T00:41:33.295Z,6.63
2022-11-17T00:43:59.707Z,4.60
2022-11-17T00:46:26.093Z,7.70
2022-11-17T00:48:52.450Z,6.30
2022-11-17T00:51:18.812Z,3.63
2022-11-17T00:53:45.247Z,4.55
2022-11-17T00:56:11.651Z,3.75
2022-11-17T00:58:38.125Z,3.58
2022-11-17T01:01:05.077Z,7.50
2022-11-17T01:03:31.579Z,5.47
2022-11-17T01:06:02.975Z,7.75
2022-11-17T01:08:29.322Z,9.13
2022-11-17T01:10:55.833Z,6.65
2022-11-17T01:13:22.277Z,4.53
2022-11-17T01:15:48.612Z,6.07
2022-11-17T01:18:14.928Z,4.80
2022-11-17T01:20:41.282Z,4.25
2022-11-17T01:23:07.614Z,5.45
2022-11-17T01:25:33.930Z,7.75
2022-11-17T01:28:00.268Z,5.05
2022-11-17T01:30:26.663Z,8.70
2022-11-17T01:32:53.068Z,6.60
2022-11-17T01:35:19.450Z,4.40
2022-11-17T01:37:45.859Z,5.72
2022-11-17T01:40:12.997Z,5.78
2022-11-17T01:42:39.373Z,2.58
2022-11-17T01:45:05.808Z,7.82
2022-11-17T01:47:41.311Z,8.73
2022-11-17T01:50:26.553Z,4.63
2022-11-17T01:52:54.219Z,22.00
2022-11-17T01:55:21.927Z,10.52
2022-11-17T01:57:54.736Z,16.63
2022-11-17T02:00:21.137Z,8.73
2022-11-17T02:02:48.057Z,10.30
2022-11-17T02:05:17.202Z,6.50
2022-11-17T02:07:44.625Z,4.57
2022-11-17T02:10:10.993Z,3.35
2022-11-17T02:12:38.065Z,6.13
2022-11-17T02:15:05.551Z,4.27
2022-11-17T02:17:39.172Z,2.95
2022-11-17T02:20:08.492Z,1.92
2022-11-17T02:23:02.008Z,5.45
2022-11-17T02:25:46.476Z,6.38
2022-11-17T02:28:12.833Z,6.13
2022-11-17T02:30:51.449Z,5.82
2022-11-17T02:33:26.051Z,6.35
2022-11-17T02:36:01.193Z,2.80
2022-11-17T02:38:46.406Z,1.63
2022-11-17T02:41:18.098Z,1.88
2022-11-17T02:44:10.740Z,2.15
2022-11-17T02:46:53.710Z,3.55
2022-11-17T02:49:22.740Z,2.90
2022-11-17T02:51:50.758Z,3.65
2022-11-17T02:54:17.977Z,1.52
2022-11-17T02:56:44.554Z,2.58
2022-11-17T02:59:13.118Z,4.97
2022-11-17T03:01:51.777Z,3.72
2022-11-17T03:04:25.038Z,5.25
2022-11-17T03:06:51.720Z,6.03
2022-11-17T03:09:18.085Z,7.50
2022-11-17T03:11:53.689Z,2.30
2022-11-17T03:14:19.989Z,3.13
2022-11-17T03:16:46.304Z,5.75
2022-11-17T03:19:12.613Z,4.68
2022-11-17T03:21:45.128Z,6.05
2022-11-17T03:24:14.090Z,2.03
2022-11-17T03:26:43.604Z,2.33
2022-11-17T03:29:13.108Z,3.17
2022-11-17T03:31:40.384Z,2.22
2022-11-17T03:34:09.212Z,1.60
2022-11-17T03:36:37.692Z,1.70
2022-11-17T03:39:15.812Z,3.08
2022-11-17T03:41:43.790Z,1.75
2022-11-17T03:46:38.008Z,1.70
2022-11-17T03:51:31.131Z,1.95
2022-11-17T03:53:57.491Z,4.13
2022-11-17T03:56:23.805Z,4.03
2022-11-17T03:58:56.341Z,2.75
2022-11-17T04:01:23.073Z,4.90
2022-11-17T04:03:49.474Z,4.13
2022-11-17T04:06:15.810Z,4.38
2022-11-17T04:08:42.269Z,5.70
2022-11-17T04:11:27.198Z,3.17
2022-11-17T04:14:12.094Z,2.97
2022-11-17T04:16:38.438Z,3.00
2022-11-17T04:19:04.769Z,5.47
2022-11-17T04:21:31.185Z,2.92
2022-11-17T04:23:57.947Z,2.60
2022-11-17T04:26:43.344Z,4.25
2022-11-17T04:29:09.791Z,4.03
2022-11-17T04:31:36.125Z,1.90
2022-11-17T04:34:03.742Z,3.55
2022-11-17T04:36:31.624Z,4.85
2022-11-17T04:41:43.784Z,4.95
2022-11-17T04:44:11.056Z,7.93
2022-11-17T04:46:38.272Z,6.15
2022-11-17T04:49:05.059Z,6.28
2022-11-17T04:51:31.619Z,9.05
2022-11-17T04:53:58.374Z,9.90
2022-11-17T04:56:24.932Z,11.70
2022-11-17T04:58:51.770Z,8.90
2022-11-17T05:01:18.884Z,7.30
2022-11-17T05:03:45.237Z,6.43
2022-11-17T05:06:13.162Z,6.40
2022-11-17T05:11:25.233Z,10.10
2022-11-17T05:13:52.141Z,9.93
2022-11-17T05:16:37.239Z,8.00
2022-11-17T05:19:04.633Z,11.65
2022-11-17T05:21:31.039Z,12.85
2022-11-17T05:23:57.488Z,9.52
2022-11-17T05:26:27.924Z,8.52
2022-11-17T05:28:55.171Z,9.50
2022-11-17T05:31:21.651Z,8.05
2022-11-17T05:33:48.023Z,12.40
2022-11-17T05:36:14.573Z,7.85
2022-11-17T05:38:41.240Z,8.82
2022-11-17T05:41:07.770Z,10.52
2022-11-17T05:43:34.502Z,10.80
2022-11-17T05:46:01.200Z,8.75
2022-11-17T05:48:27.604Z,15.60
2022-11-17T05:50:56.262Z,13.02
2022-11-17T05:53:23.495Z,13.82
2022-11-17T05:55:50.389Z,13.60
2022-11-17T05:58:24.689Z,20.85
2022-11-17T06:00:51.621Z,13.85
2022-11-17T06:03:27.129Z,19.45
2022-11-17T06:05:53.755Z,14.60
2022-11-17T06:08:20.392Z,14.35
2022-11-17T06:10:46.940Z,15.52
2022-11-17T06:13:13.321Z,18.33
2022-11-17T06:15:39.719Z,17.25
2022-11-17T06:18:10.207Z,17.50
2022-11-17T06:20:40.027Z,13.65
2022-11-17T06:23:07.557Z,12.82
2022-11-17T06:25:35.209Z,15.38
2022-11-17T06:28:02.761Z,12.57
2022-11-17T06:30:29.833Z,13.13
2022-11-17T06:32:56.818Z,18.02
2022-11-17T06:35:23.497Z,12.87
2022-11-17T06:37:49.890Z,13.65
2022-11-17T06:40:16.514Z,12.40
2022-11-17T06:43:01.302Z,10.18
2022-11-17T06:45:27.662Z,9.55
2022-11-17T06:47:54.053Z,9.15
2022-11-17T06:50:20.432Z,8.00
2022-11-17T06:52:46.819Z,7.28
2022-11-17T06:55:13.282Z,5.47
2022-11-17T06:57:39.665Z,8.48
2022-11-17T07:00:06.392Z,5.32
2022-11-17T07:02:32.811Z,5.03
2022-11-17T07:04:59.160Z,5.28
2022-11-17T07:07:25.708Z,6.78
2022-11-17T07:09:52.160Z,9.00
2022-11-17T07:12:18.546Z,6.07
2022-11-17T07:14:44.997Z,4.75
2022-11-17T07:17:11.383Z,6.03
2022-11-17T07:19:37.797Z,8.43
2022-11-17T07:22:04.470Z,4.70
2022-11-17T07:24:30.885Z,7.32
2022-11-17T07:26:57.306Z,8.65
2022-11-17T07:29:23.770Z,7.95
2022-11-17T07:31:50.127Z,10.80
2022-11-17T07:34:16.591Z,9.18
2022-11-17T07:36:42.978Z,8.73
2022-11-17T07:39:09.474Z,8.07
2022-11-17T07:41:35.893Z,13.50
2022-11-17T07:44:02.547Z,7.03
2022-11-17T07:46:29.001Z,8.13
2022-11-17T07:48:55.699Z,9.73
2022-11-17T07:51:22.128Z,8.85
2022-11-17T07:53:48.494Z,6.40
2022-11-17T07:56:14.886Z,9.05
2022-11-17T07:58:41.315Z,7.43
2022-11-17T08:01:08.562Z,5.82
2022-11-17T08:03:35.057Z,5.00
2022-11-17T08:06:02.836Z,4.70
2022-11-17T08:08:29.236Z,5.18
2022-11-17T08:10:55.631Z,6.63
2022-11-17T08:13:22.398Z,6.03
2022-11-17T08:15:48.758Z,8.80
2022-11-17T08:18:15.140Z,6.70
2022-11-17T08:20:41.575Z,7.00
2022-11-17T08:23:08.019Z,7.85
2022-11-17T08:25:34.975Z,7.57
2022-11-17T08:28:01.414Z,4.63
2022-11-17T08:30:28.646Z,6.53
2022-11-17T08:32:55.252Z,5.45
2022-11-17T08:35:23.169Z,6.63
2022-11-17T08:40:16.535Z,8.95
2022-11-17T08:42:42.926Z,11.02
2022-11-17T08:45:09.989Z,9.10
2022-11-17T08:47:36.566Z,5.97
2022-11-17T08:50:03.961Z,6.40
2022-11-17T08:52:30.726Z,8.20
2022-11-17T08:54:57.702Z,8.23
2022-11-17T08:57:24.194Z,11.48
2022-11-17T08:59:50.822Z,7.32
2022-11-17T09:02:17.357Z,10.52
2022-11-17T09:04:46.103Z,8.52
2022-11-17T09:07:12.645Z,12.70
2022-11-17T09:09:39.256Z,9.55
2022-11-17T09:12:05.844Z,15.67
2022-11-17T09:14:32.207Z,20.15
2022-11-17T09:16:58.596Z,14.80
2022-11-17T09:19:25.071Z,8.65
2022-11-17T09:21:51.476Z,9.73
2022-11-17T09:24:17.899Z,3.38
2022-11-17T09:26:44.726Z,4.70
2022-11-17T09:29:11.306Z,3.83
2022-11-17T09:31:37.870Z,5.00
2022-11-17T09:34:05.792Z,2.25
2022-11-17T09:36:32.525Z,4.28
2022-11-17T09:38:58.849Z,3.72
2022-11-17T09:41:27.770Z,3.67
2022-11-17T09:44:02.684Z,2.72
2022-11-17T09:46:32.088Z,3.65
2022-11-17T09:49:06.386Z,2.30
2022-11-17T09:51:34.263Z,2.30
2022-11-17T09:54:05.887Z,1.67
2022-11-17T09:56:33.208Z,2.67
2022-11-17T10:01:28.085Z,2.85
2022-11-17T10:03:56.899Z,2.88
2022-11-17T10:06:24.822Z,2.03
2022-11-17T10:09:00.567Z,2.65
2022-11-17T10:11:33.684Z,2.88
2022-11-17T10:14:04.024Z,3.72
2022-11-17T10:16:31.114Z,2.42
2022-11-17T10:18:57.654Z,1.95
2022-11-17T10:21:24.049Z,2.25
2022-11-17T10:23:55.089Z,5.37
2022-11-17T10:26:21.461Z,1.98
2022-11-17T10:28:48.500Z,1.53
2022-11-17T10:31:16.279Z,1.83
2022-11-17T10:33:44.063Z,4.55
2022-11-17T10:36:25.476Z,3.47
2022-11-17T10:38:53.050Z,2.45
2022-11-17T10:41:21.064Z,4.47
2022-11-17T10:44:05.961Z,4.47
2022-11-17T10:46:43.065Z,4.55
2022-11-17T10:49:23.686Z,3.00
2022-11-17T10:52:03.402Z,5.28
2022-11-17T10:54:29.723Z,3.25
2022-11-17T10:56:57.862Z,5.73
2022-11-17T10:59:41.338Z,2.55
2022-11-17T11:02:19.642Z,3.90
2022-11-17T11:04:46.004Z,4.30
2022-11-17T11:07:23.064Z,1.13
2022-11-17T11:10:12.040Z,3.67
2022-11-17T11:12:44.646Z,3.55
2022-11-17T11:15:20.253Z,3.97
2022-11-17T11:17:46.974Z,2.72
2022-11-17T11:20:17.011Z,3.38
2022-11-17T11:22:55.639Z,4.00
2022-11-17T11:25:33.802Z,2.88
2022-11-17T11:28:18.320Z,3.75
2022-11-17T11:30:57.219Z,2.25
2022-11-17T11:33:27.840Z,2.25
2022-11-17T11:35:54.267Z,3.58
2022-11-17T11:38:23.483Z,2.33
2022-11-17T11:40:59.126Z,2.80
2022-11-17T11:43:44.423Z,2.72
2022-11-17T11:46:17.376Z,1.95
2022-11-17T11:48:44.255Z,3.72
2022-11-17T11:51:18.528Z,2.42
2022-11-17T11:53:54.361Z,2.92
2022-11-17T11:56:29.776Z,3.15
2022-11-17T11:59:03.993Z,1.70
2022-11-17T12:01:37.014Z,3.53
2022-11-17T12:04:19.986Z,3.33
2022-11-17T12:07:01.688Z,3.28
2022-11-17T12:09:46.852Z,3.78
2022-11-17T12:12:14.744Z,3.83
2022-11-17T12:15:01.145Z,2.10
2022-11-17T12:17:27.506Z,4.72
2022-11-17T12:19:55.506Z,6.35
2022-11-17T12:22:34.167Z,3.25
2022-11-17T12:25:05.497Z,4.70
2022-11-17T12:27:34.699Z,6.43
2022-11-17T12:30:07.181Z,5.55
2022-11-17T12:32:48.504Z,8.98
2022-11-17T12:35:28.682Z,3.63
2022-11-17T12:38:13.926Z,3.90
2022-11-17T12:40:41.493Z,4.13
2022-11-17T12:43:17.162Z,2.20
2022-11-17T12:45:52.568Z,2.70
2022-11-17T12:48:35.886Z,6.18
2022-11-17T12:51:05.070Z,3.75
2022-11-17T12:53:50.249Z,5.00
2022-11-17T12:56:22.973Z,4.40
2022-11-17T12:58:58.493Z,2.80
2022-11-17T13:01:25.171Z,4.88
2022-11-17T13:04:09.468Z,4.47
2022-11-17T13:06:36.873Z,5.55
2022-11-17T13:09:03.571Z,3.08
2022-11-17T13:11:30.114Z,4.67
2022-11-17T13:14:08.892Z,3.67
2022-11-17T13:16:37.189Z,3.20
2022-11-17T13:19:23.492Z,3.65
2022-11-17T13:21:57.514Z,3.10
2022-11-17T13:24:32.160Z,2.08
2022-11-17T13:26:59.857Z,2.08
2022-11-17T13:29:26.327Z,4.78
2022-11-17T13:32:11.646Z,2.95
2022-11-17T13:34:45.331Z,3.30
2022-11-17T13:37:15.270Z,3.03
2022-11-17T13:39:53.142Z,2.33
2022-11-17T13:42:19.955Z,2.97
2022-11-17T13:44:46.773Z,4.00
2022-11-17T13:47:27.682Z,5.00
2022-11-17T13:49:54.031Z,3.70
2022-11-17T13:52:40.720Z,2.40
2022-11-17T13:55:10.572Z,3.30
2022-11-17T13:57:37.269Z,3.20
2022-11-17T14:00:04.467Z,3.00
2022-11-17T14:05:16.766Z,3.85
2022-11-17T14:07:43.612Z,6.13
2022-11-17T14:10:13.382Z,7.13
2022-11-17T14:12:40.175Z,4.70
2022-11-17T14:15:22.805Z,4.35
2022-11-17T14:17:54.118Z,3.10
2022-11-17T14:20:30.959Z,4.72
2022-11-17T14:23:13.355Z,5.28
2022-11-17T14:25:41.438Z,3.13
2022-11-17T14:28:14.004Z,6.32
2022-11-17T14:30:40.350Z,2.15
2022-11-17T14:33:12.054Z,5.43
2022-11-17T14:35:39.759Z,5.78
2022-11-17T14:38:06.189Z,3.65
2022-11-17T14:40:32.563Z,3.67
2022-11-17T14:42:58.886Z,2.53
2022-11-17T14:45:25.277Z,8.57
2022-11-17T14:47:51.730Z,4.18
2022-11-17T14:50:18.299Z,4.75
2022-11-17T14:52:45.177Z,5.10
2022-11-17T14:55:12.439Z,6.43
2022-11-17T14:57:38.876Z,6.30
2022-11-17T15:00:06.298Z,4.40
2022-11-17T15:02:33.106Z,3.95
2022-11-17T15:05:00.200Z,5.28
2022-11-17T15:07:27.491Z,4.13
2022-11-17T15:09:54.111Z,5.30
2022-11-17T15:12:20.949Z,2.63
2022-11-17T15:14:47.610Z,3.72
2022-11-17T15:17:14.746Z,2.83
2022-11-17T15:19:41.292Z,2.97
2022-11-17T15:22:07.662Z,3.67
2022-11-17T15:24:34.057Z,5.30
2022-11-17T15:27:00.485Z,3.38
2022-11-17T15:29:26.846Z,4.13
2022-11-17T15:31:53.745Z,3.78
2022-11-17T15:34:20.731Z,3.50
2022-11-17T15:36:47.829Z,3.03
2022-11-17T15:39:14.817Z,2.85
2022-11-17T15:41:41.378Z,2.38
2022-11-17T15:44:07.918Z,2.78
2022-11-17T15:46:34.359Z,3.90
2022-11-17T15:49:00.891Z,6.25
2022-11-17T15:51:27.903Z,5.50
2022-11-17T15:53:56.526Z,4.07
2022-11-17T15:56:24.425Z,2.97
2022-11-17T16:01:25.575Z,3.90
2022-11-17T16:03:52.524Z,6.18
2022-11-17T16:06:19.075Z,5.37
2022-11-17T16:08:45.457Z,3.38
2022-11-17T16:11:11.853Z,6.22
2022-11-17T16:13:38.291Z,7.00
2022-11-17T16:16:04.877Z,3.95
2022-11-17T16:18:34.595Z,4.00
2022-11-17T16:21:05.256Z,6.25
2022-11-17T16:23:36.818Z,9.68
2022-11-17T16:26:03.245Z,10.07
2022-11-17T16:28:29.670Z,4.80
2022-11-17T16:30:56.073Z,5.13
2022-11-17T16:33:22.443Z,5.80
2022-11-17T16:35:48.773Z,5.00
2022-11-17T16:38:15.905Z,6.80
2022-11-17T16:40:42.974Z,9.13
2022-11-17T16:43:12.942Z,4.65
2022-11-17T16:45:44.174Z,9.18
2022-11-17T16:48:13.696Z,7.95
2022-11-17T16:50:40.615Z,5.90
2022-11-17T16:53:07.461Z,6.15
2022-11-17T16:55:37.987Z,14.00
2022-11-17T16:58:05.737Z,8.15
2022-11-17T17:00:32.666Z,6.55
2022-11-17T17:02:59.110Z,6.47
2022-11-17T17:05:25.734Z,9.18
2022-11-17T17:07:52.256Z,7.05
2022-11-17T17:10:18.655Z,4.22
2022-11-17T17:12:45.007Z,5.28
2022-11-17T17:15:11.410Z,5.82
2022-11-17T17:17:38.385Z,8.43
2022-11-17T17:20:05.011Z,4.60
2022-11-17T17:22:31.423Z,7.63
2022-11-17T17:24:57.846Z,3.53
2022-11-17T17:27:24.385Z,4.13
2022-11-17T17:29:54.533Z,5.20
2022-11-17T17:32:20.930Z,7.30
2022-11-17T17:34:47.318Z,3.63
2022-11-17T17:37:13.770Z,4.43
2022-11-17T17:39:40.211Z,3.45
2022-11-17T17:42:06.614Z,4.03
2022-11-17T17:44:32.967Z,3.45
2022-11-17T17:46:59.377Z,11.40
2022-11-17T17:49:25.941Z,8.75
2022-11-17T17:51:52.369Z,12.45
2022-11-17T17:54:19.937Z,17.55
2022-11-17T17:56:46.745Z,12.35
2022-11-17T17:59:13.909Z,7.65
2022-11-17T18:01:42.101Z,13.73
2022-11-17T18:04:14.256Z,7.78
2022-11-17T18:06:42.859Z,10.02
2022-11-17T18:09:10.631Z,6.13
2022-11-17T18:11:37.176Z,6.90
2022-11-17T18:14:04.122Z,5.13
2022-11-17T18:16:31.857Z,6.25
2022-11-17T18:18:59.654Z,9.80
2022-11-17T18:21:26.674Z,6.72
2022-11-17T18:23:53.758Z,9.37
2022-11-17T18:26:21.386Z,7.03
2022-11-17T18:28:50.842Z,5.68
2022-11-17T18:31:17.291Z,4.47
2022-11-17T18:33:45.353Z,5.03
2022-11-17T18:36:11.827Z,4.47
2022-11-17T18:38:38.592Z,6.65
2022-11-17T18:41:09.016Z,4.85
2022-11-17T18:43:35.925Z,5.30
2022-11-17T18:46:03.240Z,3.83
2022-11-17T18:48:36.383Z,4.05
2022-11-17T18:51:19.023Z,4.80
2022-11-17T18:53:46.264Z,4.55
2022-11-17T18:56:13.760Z,3.97
2022-11-17T18:58:40.960Z,3.47
2022-11-17T19:01:08.666Z,5.53
2022-11-17T19:03:35.275Z,6.78
2022-11-17T19:06:02.544Z,9.63
2022-11-17T19:08:30.370Z,8.25
2022-11-17T19:10:58.150Z,6.05
2022-11-17T19:13:26.289Z,6.88
2022-11-17T19:15:52.995Z,6.20
2022-11-17T19:18:19.700Z,6.65
2022-11-17T19:20:46.107Z,7.07
2022-11-17T19:23:12.619Z,4.25
2022-11-17T19:25:39.872Z,4.15
2022-11-17T19:28:06.796Z,3.28
2022-11-17T19:30:33.506Z,5.00
2022-11-17T19:32:59.916Z,4.20
2022-11-17T19:35:26.305Z,4.07
2022-11-17T19:37:52.673Z,7.22
2022-11-17T19:40:19.043Z,11.13
2022-11-17T19:42:48.470Z,14.30
2022-11-17T19:45:15.274Z,9.57
2022-11-17T19:47:41.670Z,12.57
2022-11-17T19:50:08.294Z,10.23
2022-11-17T19:52:34.809Z,4.68
2022-11-17T19:55:01.167Z,5.85
2022-11-17T19:57:27.508Z,4.28
2022-11-17T19:59:53.955Z,6.90
2022-11-17T20:02:20.353Z,6.07
2022-11-17T20:04:46.781Z,10.68
2022-11-17T20:07:13.735Z,6.38
2022-11-17T20:09:40.199Z,11.63
2022-11-17T20:12:06.688Z,5.40
2022-11-17T20:14:33.246Z,7.25
2022-11-17T20:16:59.612Z,6.25
2022-11-17T20:19:25.998Z,4.78
2022-11-17T20:21:52.848Z,4.68
2022-11-17T20:24:19.265Z,9.27
2022-11-17T20:26:46.334Z,6.57
2022-11-17T20:29:12.729Z,7.07
2022-11-17T20:31:39.097Z,8.27
2022-11-17T20:34:05.649Z,6.85
2022-11-17T20:36:33.246Z,8.25
2022-11-17T20:39:00.912Z,7.30
2022-11-17T20:41:27.550Z,10.63
2022-11-17T20:43:54.923Z,6.78
2022-11-17T20:46:21.861Z,7.30
2022-11-17T20:48:48.483Z,6.07
2022-11-17T20:51:16.799Z,5.00
2022-11-17T20:53:44.112Z,8.25
2022-11-17T20:56:12.009Z,4.65
2022-11-17T21:01:14.634Z,5.95
2022-11-17T21:03:41.427Z,5.40
2022-11-17T21:06:07.963Z,6.70
2022-11-17T21:08:35.686Z,7.30
2022-11-17T21:11:03.158Z,6.35
2022-11-17T21:13:31.299Z,5.07
2022-11-17T21:16:14.656Z,8.93
2022-11-17T21:18:47.703Z,10.98
2022-11-17T21:21:14.396Z,6.55
2022-11-17T21:23:41.291Z,6.90
2022-11-17T21:26:11.866Z,8.35
2022-11-17T21:28:38.548Z,10.20
2022-11-17T21:31:09.946Z,7.22
2022-11-17T21:33:36.640Z,9.18
2022-11-17T21:36:08.162Z,7.15
2022-11-17T21:38:34.605Z,4.30
2022-11-17T21:41:01.891Z,7.60
2022-11-17T21:43:28.678Z,5.63
2022-11-17T21:45:55.064Z,6.95
2022-11-17T21:48:21.428Z,6.68
2022-11-17T21:50:47.799Z,8.95
2022-11-17T21:53:14.208Z,7.38
2022-11-17T21:55:40.579Z,7.75
2022-11-17T21:58:06.923Z,6.72
2022-11-17T22:00:33.308Z,6.43
2022-11-17T22:02:59.676Z,6.65
2022-11-17T22:05:26.032Z,5.75
2022-11-17T22:07:52.399Z,6.80
2022-11-17T22:10:18.765Z,7.20
2022-11-17T22:12:45.148Z,7.75
2022-11-17T22:15:12.002Z,9.43
2022-11-17T22:17:38.514Z,5.38
2022-11-17T22:20:05.188Z,5.85
2022-11-17T22:22:31.823Z,5.28
2022-11-17T22:25:07.288Z,5.13
2022-11-17T22:27:44.587Z,4.57
2022-11-17T22:30:11.317Z,4.50
2022-11-17T22:32:42.458Z,6.20
2022-11-17T22:35:11.433Z,7.88
2022-11-17T22:37:37.838Z,4.72
2022-11-17T22:40:04.382Z,3.63
2022-11-17T22:42:30.792Z,5.43
2022-11-17T22:44:57.171Z,4.72
2022-11-17T22:47:23.536Z,3.78
2022-11-17T22:49:49.928Z,4.45
2022-11-17T22:52:16.316Z,4.40
2022-11-17T22:54:42.905Z,6.15
2022-11-17T22:57:09.310Z,6.05
2022-11-17T22:59:35.832Z,2.58
2022-11-17T23:02:02.234Z,4.03
2022-11-17T23:04:28.689Z,5.65
2022-11-17T23:06:55.147Z,3.42
2022-11-17T23:09:21.660Z,3.47
2022-11-17T23:11:49.308Z,5.32
2022-11-17T23:14:15.795Z,2.65
2022-11-17T23:16:42.234Z,2.25
2022-11-17T23:19:11.345Z,3.33
2022-11-17T23:21:37.724Z,5.72
2022-11-17T23:24:04.461Z,1.80
2022-11-17T23:26:30.856Z,4.55
2022-11-17T23:28:58.046Z,3.53
2022-11-17T23:31:24.532Z,4.60
2022-11-17T23:33:51.009Z,6.88
2022-11-17T23:36:18.506Z,2.45
2022-11-17T23:38:45.383Z,4.00
2022-11-17T23:41:12.937Z,6.05
2022-11-17T23:43:39.729Z,6.43
2022-11-17T23:46:19.083Z,4.13
2022-11-17T23:48:45.601Z,2.80
2022-11-17T23:51:13.214Z,3.45
2022-11-17T23:53:39.594Z,7.45
2022-11-17T23:56:06.570Z,4.32
2022-11-17T23:58:33.419Z,5.10
